Thomas, Oklahoma
Current Conditions -  °F | °C
As of 12:55 PM on Sunday 23 Nov 2014 (Local Time) from KOJA Reporting Station
Clear Clear  
Wind Chill: 59°   Ceiling: Unl
Heat Index: 59°   Visibility: 10mi
Dew Point: 41°   Wind: 20mph
Humidity: 51%   Direction: 350°N
Pressure: 29.37"   Gusts: 29mph
Location:  35.74°N, 98.75°W
Report Text: KOJA 231855Z AUTO 35017G25KT 10SM CLR 15/05 A2937 RMK AO2
Loading
Personal Weather Stations






























Interactive Weather Map New forecast layout! Learn more

10-Day Weather Forecast

Advertisements
Track Severe Weather on mobile